Time;durP1;ratioP1;P1;durP2;ratioP2;P2;SDS_P1;SDS_P2;PMS_P1;PMS_P2;Temp;Humidity;BMP_temperature;BMP_pressure;BME280_temperature;BME280_humidity;BME280_pressure;Samples;Min_cycle;Max_cycle;Signal;HPM_P1;HPM_P2
2021/07/01 00:00:15;;;;;;;3.97;2.35;;;15.80;99.90;;;;;;5031290;28;20509;-68
2021/07/01 00:02:41;;;;;;;3.10;1.98;;;15.70;99.90;;;;;;5014572;28;20371;-68
2021/07/01 00:05:11;;;;;;;3.50;1.88;;;15.80;99.90;;;;;;5030906;28;20076;-69
2021/07/01 00:07:39;;;;;;;2.60;1.80;;;15.70;99.90;;;;;;5031475;28;20116;-68
2021/07/01 00:10:15;;;;;;;3.75;1.77;;;15.80;99.90;;;;;;5030775;28;20040;-69
2021/07/01 00:12:40;;;;;;;5.07;1.90;;;15.70;99.90;;;;;;5031092;28;20033;-68
2021/07/01 00:15:13;;;;;;;3.05;1.65;;;15.80;99.90;;;;;;5032188;28;20079;-68
2021/07/01 00:17:39;;;;;;;3.40;1.92;;;15.80;99.90;;;;;;5031093;28;20492;-69
2021/07/01 00:20:06;;;;;;;3.05;1.90;;;15.80;99.90;;;;;;5014360;28;20113;-69
2021/07/01 00:22:32;;;;;;;7.13;1.83;;;15.80;99.90;;;;;;5031197;28;20121;-68
2021/07/01 00:24:58;;;;;;;4.55;2.00;;;15.90;99.90;;;;;;5030807;28;20034;-69
2021/07/01 00:27:24;;;;;;;4.93;1.90;;;15.80;99.90;;;;;;5014659;28;20029;-69
2021/07/01 00:29:50;;;;;;;4.10;1.80;;;15.90;99.90;;;;;;5014259;28;20075;-69
2021/07/01 00:32:15;;;;;;;4.05;2.00;;;15.80;99.90;;;;;;5031953;28;20470;-69
2021/07/01 00:34:41;;;;;;;4.93;1.80;;;15.90;99.90;;;;;;5035914;28;20469;-69
2021/07/01 00:37:07;;;;;;;2.63;1.73;;;15.70;99.90;;;;;;5034526;28;20033;-69
2021/07/01 00:39:32;;;;;;;6.35;3.03;;;15.80;99.90;;;;;;5035037;28;20053;-69
2021/07/01 00:41:58;;;;;;;6.03;2.53;;;15.80;99.90;;;;;;5035839;28;20112;-69
2021/07/01 00:44:24;;;;;;;5.82;1.88;;;15.80;99.90;;;;;;5018542;28;20363;-69
2021/07/01 00:46:50;;;;;;;3.00;2.03;;;15.80;99.90;;;;;;5035926;28;20144;-69
2021/07/01 00:49:15;;;;;;;6.63;2.33;;;15.70;99.90;;;;;;5035854;28;20029;-70
2021/07/01 00:51:42;;;;;;;5.40;2.03;;;15.70;99.90;;;;;;5034417;28;20099;-69
2021/07/01 00:54:09;;;;;;;3.63;2.28;;;15.60;99.90;;;;;;5034400;28;20089;-69
2021/07/01 00:56:38;;;;;;;5.20;2.13;;;15.70;99.90;;;;;;5018139;28;20037;-68
2021/07/01 00:59:06;;;;;;;3.88;2.35;;;15.70;99.90;;;;;;5034234;28;20037;-69
2021/07/01 01:01:32;;;;;;;4.03;1.80;;;15.60;99.90;;;;;;5034595;28;20033;-69
2021/07/01 01:03:58;;;;;;;3.08;2.10;;;15.70;99.90;;;;;;5035197;28;20088;-69
2021/07/01 01:06:24;;;;;;;3.10;1.80;;;15.80;99.90;;;;;;5034245;28;20041;-69
2021/07/01 01:08:50;;;;;;;4.50;2.08;;;15.70;99.90;;;;;;5034281;28;20116;-68
2021/07/01 01:11:16;;;;;;;3.08;2.17;;;15.70;99.90;;;;;;5035434;28;20032;-69
2021/07/01 01:13:45;;;;;;;5.10;2.03;;;15.60;99.90;;;;;;5034094;28;20550;-69
2021/07/01 01:16:11;;;;;;;3.47;2.50;;;15.70;99.90;;;;;;5034967;28;20033;-69
2021/07/01 01:18:37;;;;;;;4.45;2.47;;;15.60;99.90;;;;;;5035103;28;20453;-69
2021/07/01 01:21:03;;;;;;;5.22;2.30;;;15.60;99.90;;;;;;5035035;28;20065;-70
2021/07/01 01:23:29;;;;;;;5.43;2.60;;;15.60;99.90;;;;;;5033804;28;20025;-68
2021/07/01 01:26:01;;;;;;;3.60;2.40;;;15.60;99.90;;;;;;5035020;28;20112;-68
2021/07/01 01:28:28;;;;;;;6.57;3.28;;;15.70;99.90;;;;;;5033770;28;20036;-69
2021/07/01 01:30:54;;;;;;;5.10;2.83;;;15.60;99.90;;;;;;5033893;28;20034;-69
2021/07/01 01:33:20;;;;;;;4.00;2.47;;;15.60;99.90;;;;;;5034022;28;20382;-69
2021/07/01 01:35:47;;;;;;;5.90;2.53;;;15.60;99.90;;;;;;5035153;28;20040;-69
2021/07/01 01:38:15;;;;;;;6.68;2.78;;;15.60;99.90;;;;;;5033864;28;20033;-68
2021/07/01 01:40:44;;;;;;;3.38;2.15;;;15.70;99.90;;;;;;5034961;28;20033;-68
2021/07/01 01:43:12;;;;;;;4.13;2.60;;;15.70;99.90;;;;;;5033742;28;20029;-69
2021/07/01 01:45:39;;;;;;;3.55;2.40;;;15.60;99.90;;;;;;5016838;28;20034;-69
2021/07/01 01:48:06;;;;;;;5.00;3.15;;;15.70;99.90;;;;;;5034597;28;20029;-69
2021/07/01 01:50:32;;;;;;;4.28;2.40;;;15.60;99.90;;;;;;5033496;28;20498;-68
2021/07/01 01:52:58;;;;;;;4.97;2.42;;;15.70;99.90;;;;;;5033473;28;20029;-69
2021/07/01 01:55:24;;;;;;;5.18;2.95;;;15.70;99.90;;;;;;5033476;28;20042;-69
2021/07/01 01:57:50;;;;;;;4.03;2.50;;;15.70;99.90;;;;;;5033499;28;20033;-69
2021/07/01 02:00:22;;;;;;;4.72;2.90;;;15.70;99.90;;;;;;5033452;28;20038;-69
2021/07/01 02:02:48;;;;;;;3.38;2.30;;;15.80;99.90;;;;;;5016991;28;20100;-68
2021/07/01 02:05:15;;;;;;;5.45;2.80;;;15.70;99.90;;;;;;5033972;28;20587;-68
2021/07/01 02:07:42;;;;;;;4.78;2.75;;;15.70;99.90;;;;;;5034248;28;20088;-68
2021/07/01 02:10:15;;;;;;;4.28;2.70;;;15.60;99.90;;;;;;5033315;28;20060;-68
2021/07/01 02:12:41;;;;;;;6.18;3.10;;;15.70;99.90;;;;;;5033107;28;20060;-68
2021/07/01 02:15:10;;;;;;;4.93;2.75;;;15.70;99.90;;;;;;5032924;28;20112;-68
2021/07/01 02:17:37;;;;;;;5.70;2.70;;;15.70;99.90;;;;;;5034079;28;20117;-68
2021/07/01 02:20:26;;;;;;;4.97;2.97;;;15.80;99.90;;;;;;5034122;28;20091;-68
2021/07/01 02:22:53;;;;;;;7.38;2.75;;;15.80;99.90;;;;;;5033920;28;20030;-68
2021/07/01 02:25:19;;;;;;;4.50;2.70;;;15.80;99.90;;;;;;5032736;28;20044;-68
2021/07/01 02:27:45;;;;;;;4.13;2.55;;;15.80;99.90;;;;;;5033024;28;20034;-68
2021/07/01 02:30:15;;;;;;;4.35;2.80;;;15.80;99.90;;;;;;5032722;28;20052;-68
2021/07/01 02:32:43;;;;;;;5.17;2.93;;;15.70;99.90;;;;;;5033024;28;20087;-68
2021/07/01 02:35:10;;;;;;;5.93;2.63;;;15.70;99.90;;;;;;5032467;28;20296;-69
2021/07/01 02:37:40;;;;;;;7.85;3.38;;;15.70;99.90;;;;;;5032654;28;20068;-69
2021/07/01 02:40:14;;;;;;;5.38;3.08;;;15.80;99.90;;;;;;5032869;28;20026;-69
2021/07/01 02:42:41;;;;;;;4.63;3.20;;;15.70;99.90;;;;;;5032690;28;20034;-69
2021/07/01 02:45:10;;;;;;;6.07;3.10;;;15.80;99.90;;;;;;5033422;28;20025;-69
2021/07/01 02:47:36;;;;;;;5.80;3.13;;;15.70;99.90;;;;;;5033799;28;20034;-69
2021/07/01 02:50:04;;;;;;;7.45;3.65;;;15.80;99.90;;;;;;5032248;28;20032;-69
2021/07/01 02:52:30;;;;;;;7.13;4.32;;;15.70;99.90;;;;;;5032503;28;20037;-69
2021/07/01 02:54:56;;;;;;;8.15;3.25;;;15.60;99.90;;;;;;5033392;28;20120;-70
2021/07/01 02:57:22;;;;;;;5.13;3.25;;;15.70;99.90;;;;;;5015017;28;20033;-69
2021/07/01 02:59:47;;;;;;;6.55;3.58;;;15.70;99.90;;;;;;5033342;28;20044;-68
2021/07/01 03:02:13;;;;;;;4.80;2.97;;;15.60;99.90;;;;;;5033236;28;20128;-69
2021/07/01 03:04:39;;;;;;;6.72;3.53;;;15.70;99.90;;;;;;5033267;28;20403;-68
2021/07/01 03:07:06;;;;;;;4.72;3.20;;;15.60;99.90;;;;;;5033427;28;20042;-69
2021/07/01 03:09:32;;;;;;;12.40;5.20;;;15.60;99.90;;;;;;5033189;28;20040;-69
2021/07/01 03:11:57;;;;;;;5.15;3.75;;;15.60;99.90;;;;;;5033054;28;20034;-68
2021/07/01 03:14:23;;;;;;;6.10;3.70;;;15.60;99.90;;;;;;5032938;28;20041;-69
2021/07/01 03:16:49;;;;;;;6.22;3.33;;;15.60;99.90;;;;;;5032912;28;20026;-69
2021/07/01 03:19:15;;;;;;;7.55;3.60;;;15.70;99.90;;;;;;5032923;28;20504;-69
2021/07/01 03:21:41;;;;;;;6.50;3.35;;;15.70;99.90;;;;;;5033134;28;20034;-69
2021/07/01 03:24:06;;;;;;;6.25;3.53;;;15.70;99.90;;;;;;5032893;28;20033;-68
2021/07/01 03:26:32;;;;;;;5.35;3.60;;;15.60;99.90;;;;;;5031628;28;20091;-69
2021/07/01 03:28:58;;;;;;;5.18;3.50;;;15.70;99.90;;;;;;5031421;28;20026;-69
2021/07/01 03:31:24;;;;;;;7.22;3.92;;;15.70;99.90;;;;;;5033056;28;20393;-69
2021/07/01 03:33:50;;;;;;;7.55;3.55;;;15.70;99.90;;;;;;5032525;28;20037;-68
2021/07/01 03:36:15;;;;;;;6.53;3.55;;;15.60;99.90;;;;;;5001650;28;20060;-68
2021/07/01 03:38:41;;;;;;;5.55;3.78;;;15.70;99.90;;;;;;5030551;28;20505;-67
2021/07/01 03:41:07;;;;;;;6.00;3.65;;;15.60;99.90;;;;;;5032507;28;20029;-67
2021/07/01 03:43:40;;;;;;;5.07;3.42;;;15.60;99.90;;;;;;5014963;28;20034;-67
2021/07/01 03:46:07;;;;;;;5.70;3.30;;;15.60;99.90;;;;;;5014867;28;20040;-68
2021/07/01 03:48:33;;;;;;;4.35;3.13;;;15.60;99.90;;;;;;5024714;28;20041;-68
2021/07/01 03:50:59;;;;;;;7.00;3.72;;;15.60;99.90;;;;;;5030969;28;20060;-67
2021/07/01 03:53:24;;;;;;;5.32;3.55;;;15.60;99.90;;;;;;5032544;28;20545;-66
2021/07/01 03:55:50;;;;;;;6.22;3.22;;;15.60;99.90;;;;;;5032652;28;20045;-65
2021/07/01 03:58:16;;;;;;;3.95;2.75;;;15.60;99.90;;;;;;5031250;28;20079;-68
2021/07/01 04:00:42;;;;;;;5.35;3.00;;;15.60;99.90;;;;;;5032423;28;20037;-67
2021/07/01 04:03:07;;;;;;;5.60;3.40;;;15.60;99.90;;;;;;5031219;28;20028;-67
2021/07/01 04:05:33;;;;;;;6.40;4.03;;;15.70;99.90;;;;;;5030819;28;20053;-67
2021/07/01 04:07:59;;;;;;;5.05;2.83;;;15.60;99.90;;;;;;5032412;28;20042;-68
2021/07/01 04:10:24;;;;;;;4.93;3.33;;;15.60;99.90;;;;;;4995324;28;20026;-65
2021/07/01 04:12:50;;;;;;;5.40;3.40;;;15.60;99.90;;;;;;5012594;28;20065;-67
2021/07/01 04:15:16;;;;;;;7.13;4.05;;;15.70;99.90;;;;;;5015997;28;20042;-68
2021/07/01 04:17:42;;;;;;;5.95;3.70;;;15.60;99.90;;;;;;5015317;28;20038;-68
2021/07/01 04:20:08;;;;;;;7.03;3.25;;;15.60;99.90;;;;;;4994689;28;20041;-68
2021/07/01 04:22:34;;;;;;;4.93;3.15;;;15.60;99.90;;;;;;5011342;28;20073;-68
2021/07/01 04:25:00;;;;;;;6.78;3.50;;;15.50;99.90;;;;;;4994512;28;20029;-67
2021/07/01 04:27:26;;;;;;;4.50;3.15;;;15.60;99.90;;;;;;4995052;28;20045;-68
2021/07/01 04:29:53;;;;;;;9.43;5.38;;;15.60;99.90;;;;;;5012258;28;20038;-69
2021/07/01 04:32:20;;;;;;;11.10;5.30;;;15.60;99.90;;;;;;4994629;28;20034;-69
2021/07/01 04:34:46;;;;;;;9.57;5.28;;;15.70;99.90;;;;;;4995047;28;20061;-67
2021/07/01 04:37:12;;;;;;;10.48;6.00;;;15.60;99.90;;;;;;5012292;28;20061;-68
2021/07/01 04:39:37;;;;;;;9.15;5.90;;;15.70;99.90;;;;;;5007239;28;20021;-67
2021/07/01 04:42:03;;;;;;;10.18;5.50;;;15.70;99.90;;;;;;5031603;28;20034;-68
2021/07/01 04:44:29;;;;;;;10.95;5.95;;;15.60;99.90;;;;;;5031923;28;20029;-67
2021/07/01 04:46:58;;;;;;;10.80;6.97;;;15.60;99.90;;;;;;4992468;28;20388;-69
2021/07/01 04:49:23;;;;;;;10.10;6.32;;;15.60;99.90;;;;;;4972287;28;20038;-67
2021/07/01 04:51:49;;;;;;;10.85;6.70;;;15.50;99.90;;;;;;5011971;28;20021;-67
2021/07/01 04:54:15;;;;;;;11.43;6.53;;;15.50;99.90;;;;;;4994476;28;20030;-68
2021/07/01 04:56:47;;;;;;;9.60;5.95;;;15.50;99.90;;;;;;5030840;28;20033;-67
2021/07/01 04:59:18;;;;;;;10.98;6.57;;;15.40;99.90;;;;;;5031905;28;20065;-67
2021/07/01 05:01:45;;;;;;;8.95;5.75;;;15.40;99.90;;;;;;5031717;28;20041;-68
2021/07/01 05:04:14;;;;;;;9.90;6.53;;;15.40;99.90;;;;;;5031744;28;20040;-67
2021/07/01 05:06:42;;;;;;;11.00;6.97;;;15.40;99.90;;;;;;5014349;28;20120;-67
2021/07/01 05:09:09;;;;;;;10.98;6.25;;;15.40;99.90;;;;;;5013819;28;20029;-68
2021/07/01 05:11:37;;;;;;;9.30;6.15;;;15.50;99.90;;;;;;5014250;28;20103;-68
2021/07/01 05:14:04;;;;;;;9.88;5.80;;;15.40;99.90;;;;;;5031343;28;20030;-67
2021/07/01 05:16:32;;;;;;;10.25;6.20;;;15.30;99.90;;;;;;5031733;28;20113;-67
2021/07/01 05:18:59;;;;;;;10.18;6.47;;;15.40;99.90;;;;;;5032525;28;20033;-67
2021/07/01 05:21:25;;;;;;;12.38;7.13;;;15.50;99.90;;;;;;5035359;28;20051;-68
2021/07/01 05:23:52;;;;;;;11.32;6.90;;;15.40;99.90;;;;;;5035063;28;20048;-68
2021/07/01 05:26:18;;;;;;;10.82;6.20;;;15.50;99.90;;;;;;5034977;28;20079;-68
2021/07/01 05:28:45;;;;;;;8.25;5.78;;;15.50;99.90;;;;;;5035100;28;20022;-68
2021/07/01 05:31:14;;;;;;;11.45;5.43;;;15.50;99.90;;;;;;5017223;28;20030;-68
2021/07/01 05:33:40;;;;;;;7.35;4.75;;;15.60;99.90;;;;;;5017656;28;20060;-68
2021/07/01 05:36:06;;;;;;;8.02;5.28;;;15.50;99.90;;;;;;5034973;28;20034;-68
2021/07/01 05:38:32;;;;;;;10.13;5.30;;;15.60;99.90;;;;;;5017040;28;20036;-68
2021/07/01 05:40:58;;;;;;;9.65;5.20;;;15.60;99.90;;;;;;5016653;28;20045;-69
2021/07/01 05:43:25;;;;;;;10.15;5.13;;;15.70;99.90;;;;;;5006484;28;20038;-69
2021/07/01 05:45:52;;;;;;;11.02;4.75;;;15.60;99.90;;;;;;5014613;28;20041;-68
2021/07/01 05:48:18;;;;;;;6.00;4.32;;;15.60;99.90;;;;;;5014603;28;20037;-69
2021/07/01 05:51:05;;;;;;;7.50;4.65;;;15.60;99.90;;;;;;5015002;28;20073;-68
2021/07/01 05:53:35;;;;;;;7.22;5.20;;;15.70;99.90;;;;;;4997523;28;20033;-69
2021/07/01 05:56:01;;;;;;;6.30;3.90;;;15.80;99.90;;;;;;5013528;28;20036;-68
2021/07/01 05:58:27;;;;;;;12.45;4.80;;;15.70;99.90;;;;;;5013703;28;20034;-68
2021/07/01 06:00:53;;;;;;;12.95;4.22;;;15.70;99.90;;;;;;5013731;28;20119;-68
2021/07/01 06:03:18;;;;;;;30.20;5.85;;;15.80;99.90;;;;;;5013147;28;20061;-69
2021/07/01 06:05:51;;;;;;;11.60;3.78;;;15.80;99.90;;;;;;5014535;28;20056;-68
2021/07/01 06:08:20;;;;;;;8.77;2.85;;;15.90;99.90;;;;;;5013587;28;20034;-69
2021/07/01 06:10:46;;;;;;;3.63;2.25;;;16.00;99.90;;;;;;5013657;28;20037;-69
2021/07/01 06:13:15;;;;;;;4.68;2.47;;;16.00;99.90;;;;;;5014148;28;20494;-69
2021/07/01 06:15:41;;;;;;;7.45;3.20;;;16.00;99.90;;;;;;5029043;28;20073;-69
2021/07/01 06:18:07;;;;;;;16.75;4.03;;;15.90;99.90;;;;;;5032803;28;20036;-68
2021/07/01 06:20:32;;;;;;;17.73;4.50;;;15.90;99.90;;;;;;5034091;28;20033;-67
2021/07/01 06:22:58;;;;;;;9.25;2.70;;;16.00;99.90;;;;;;5034240;28;20028;-68
2021/07/01 06:25:24;;;;;;;22.73;3.83;;;16.10;99.90;;;;;;5034149;28;20032;-68
2021/07/01 06:27:50;;;;;;;9.75;5.68;;;16.20;99.90;;;;;;5013145;28;21330;-68
2021/07/01 06:30:22;;;;;;;11.05;5.50;;;16.10;99.90;;;;;;5033338;28;20562;-69
2021/07/01 06:32:51;;;;;;;5.53;3.00;;;16.10;99.90;;;;;;5049024;28;20037;-68
2021/07/01 06:35:25;;;;;;;5.95;2.60;;;16.00;99.90;;;;;;5026856;28;20032;-68
2021/07/01 06:38:00;;;;;;;4.82;2.85;;;16.10;99.90;;;;;;5033727;28;20620;-69
2021/07/01 06:40:32;;;;;;;10.45;3.25;;;16.10;99.90;;;;;;5026797;28;20041;-68
2021/07/01 06:42:59;;;;;;;30.42;5.00;;;15.90;99.90;;;;;;5014654;28;20430;-69
2021/07/01 06:45:26;;;;;;;9.02;3.15;;;16.00;99.90;;;;;;5028093;28;20029;-68
2021/07/01 06:47:55;;;;;;;11.23;2.67;;;16.00;99.90;;;;;;5021073;28;20125;-68
2021/07/01 06:50:27;;;;;;;12.98;3.55;;;15.90;99.90;;;;;;5015574;28;20103;-69
2021/07/01 06:52:55;;;;;;;7.47;2.30;;;16.00;99.90;;;;;;5013462;28;20390;-67
2021/07/01 06:55:22;;;;;;;18.60;2.13;;;15.90;99.90;;;;;;5022981;28;20037;-69
2021/07/01 06:57:49;;;;;;;8.20;2.28;;;15.90;99.90;;;;;;5022567;28;20025;-68
2021/07/01 07:00:18;;;;;;;12.60;2.92;;;15.90;99.90;;;;;;5022157;28;20036;-68
2021/07/01 07:02:45;;;;;;;20.33;3.65;;;16.00;99.90;;;;;;5004065;28;20034;-68
2021/07/01 07:05:17;;;;;;;22.35;4.20;;;16.00;99.90;;;;;;4995857;28;20050;-68
2021/07/01 07:07:46;;;;;;;4.00;1.08;;;16.00;99.90;;;;;;5013843;28;20048;-68
2021/07/01 07:10:19;;;;;;;4.40;1.65;;;16.00;99.90;;;;;;5012302;28;20088;-68
2021/07/01 07:12:49;;;;;;;1.98;1.20;;;16.10;99.90;;;;;;4996191;28;20034;-68
2021/07/01 07:15:29;;;;;;;7.57;1.60;;;16.20;99.90;;;;;;4995691;28;20100;-69
2021/07/01 07:18:09;;;;;;;2.25;1.23;;;16.20;99.90;;;;;;5013668;28;20033;-68
2021/07/01 07:20:38;;;;;;;2.65;1.30;;;16.00;99.90;;;;;;4996968;28;20049;-69
2021/07/01 07:23:05;;;;;;;7.85;1.55;;;16.00;99.90;;;;;;5013493;28;20025;-69
2021/07/01 07:25:37;;;;;;;20.17;4.00;;;16.10;99.90;;;;;;4995342;28;20064;-68
2021/07/01 07:28:06;;;;;;;2.42;1.33;;;16.10;99.90;;;;;;4996772;28;20122;-68
2021/07/01 07:30:33;;;;;;;3.22;1.48;;;16.20;99.90;;;;;;5013019;28;20033;-69
2021/07/01 07:33:09;;;;;;;8.25;1.75;;;16.10;99.90;;;;;;4995706;28;20087;-69
2021/07/01 07:35:36;;;;;;;29.65;4.53;;;16.10;99.90;;;;;;5013118;28;20041;-69
2021/07/01 07:38:05;;;;;;;8.45;1.42;;;16.20;99.90;;;;;;4995471;28;20410;-69
2021/07/01 07:40:33;;;;;;;14.45;2.20;;;16.10;99.90;;;;;;4995666;28;20057;-69
2021/07/01 07:43:03;;;;;;;11.88;1.63;;;16.10;99.90;;;;;;5013204;28;20088;-69
2021/07/01 07:45:30;;;;;;;4.38;1.77;;;16.10;99.90;;;;;;5032790;28;20040;-68
2021/07/01 07:47:56;;;;;;;4.57;1.42;;;16.20;99.90;;;;;;5032874;28;20431;-69
2021/07/01 07:50:21;;;;;;;4.90;1.42;;;16.30;99.90;;;;;;5032309;28;20083;-68
2021/07/01 07:52:54;;;;;;;2.40;1.23;;;16.40;99.90;;;;;;5032524;28;20036;-69
2021/07/01 07:55:26;;;;;;;2.50;1.48;;;16.40;99.90;;;;;;5026573;28;20124;-71
2021/07/01 07:57:55;;;;;;;2.05;1.23;;;16.30;99.90;;;;;;5015134;28;20038;-68
2021/07/01 08:00:21;;;;;;;2.60;1.50;;;16.40;99.90;;;;;;4995277;28;20026;-69
2021/07/01 08:02:59;;;;;;;4.22;2.10;;;16.40;99.90;;;;;;5013155;28;20037;-69
2021/07/01 08:05:29;;;;;;;42.10;3.30;;;16.40;99.90;;;;;;4995271;28;20046;-69
2021/07/01 08:07:56;;;;;;;18.95;3.63;;;16.40;99.90;;;;;;5013190;28;20034;-69
2021/07/01 08:10:28;;;;;;;20.15;2.90;;;16.40;99.90;;;;;;4994909;28;20116;-68
2021/07/01 08:13:02;;;;;;;12.63;2.70;;;16.40;99.90;;;;;;4995635;28;20100;-69
2021/07/01 08:15:29;;;;;;;6.10;2.25;;;16.40;99.90;;;;;;4979436;28;20030;-69
2021/07/01 08:17:56;;;;;;;16.77;2.60;;;16.50;99.90;;;;;;4995171;28;20057;-68
2021/07/01 08:20:24;;;;;;;7.50;2.08;;;16.50;99.90;;;;;;4994809;28;20076;-68
2021/07/01 08:22:53;;;;;;;6.18;1.50;;;16.60;99.90;;;;;;4995031;28;20038;-68
2021/07/01 08:25:21;;;;;;;4.53;1.85;;;16.50;99.90;;;;;;4995088;28;20022;-69
2021/07/01 08:27:50;;;;;;;14.38;2.17;;;16.50;99.90;;;;;;5012207;28;20034;-68
2021/07/01 08:30:24;;;;;;;2.60;1.13;;;16.50;99.90;;;;;;5019490;28;20029;-68
2021/07/01 08:33:00;;;;;;;3.85;1.50;;;16.60;99.90;;;;;;5029296;28;20061;-69
2021/07/01 08:35:28;;;;;;;2.70;1.60;;;16.60;99.90;;;;;;5030585;28;20394;-68
2021/07/01 08:38:01;;;;;;;2.47;1.20;;;16.60;99.90;;;;;;5030898;28;20069;-68
2021/07/01 08:40:33;;;;;;;2.38;1.40;;;16.60;99.90;;;;;;5030303;28;20038;-68
2021/07/01 08:43:01;;;;;;;2.58;1.23;;;16.60;99.90;;;;;;5032253;28;20037;-68
2021/07/01 08:45:59;;;;;;;2.95;1.48;;;16.60;99.90;;;;;;5030675;28;20072;-68
2021/07/01 08:48:25;;;;;;;2.72;1.48;;;16.60;99.90;;;;;;5031678;28;20021;-68
2021/07/01 08:50:57;;;;;;;7.43;1.75;;;16.80;99.90;;;;;;5031874;28;20387;-69
2021/07/01 08:53:44;;;;;;;1.83;0.90;;;16.90;99.90;;;;;;5031536;28;20029;-69
2021/07/01 08:56:14;;;;;;;12.35;2.42;;;17.10;99.90;;;;;;5035941;28;20433;-69
2021/07/01 08:58:51;;;;;;;18.77;4.28;;;17.10;99.90;;;;;;5035692;28;20425;-69
2021/07/01 09:01:21;;;;;;;4.60;2.50;;;16.80;99.90;;;;;;5017803;28;20037;-69
2021/07/01 09:03:50;;;;;;;4.10;2.50;;;16.50;99.90;;;;;;5035899;28;20470;-69
2021/07/01 09:06:26;;;;;;;4.43;2.28;;;16.40;99.90;;;;;;5014492;28;20046;-68
2021/07/01 09:09:02;;;;;;;4.40;2.42;;;16.30;99.90;;;;;;5030976;28;20030;-68
2021/07/01 09:11:28;;;;;;;5.07;2.20;;;16.10;99.90;;;;;;5030231;28;20034;-69
2021/07/01 09:13:57;;;;;;;3.67;2.08;;;16.20;99.90;;;;;;5015949;28;20034;-69
2021/07/01 09:16:24;;;;;;;5.60;1.67;;;16.10;99.90;;;;;;5015838;28;20117;-69
2021/07/01 09:18:53;;;;;;;5.45;1.67;;;16.10;99.90;;;;;;5015620;28;20569;-69
2021/07/01 09:21:20;;;;;;;6.88;2.30;;;16.10;99.90;;;;;;5030577;28;20080;-69
2021/07/01 09:23:48;;;;;;;3.53;1.90;;;16.20;99.90;;;;;;5030663;28;20034;-69
2021/07/01 09:26:25;;;;;;;3.75;2.28;;;16.30;99.90;;;;;;5015415;28;20286;-69
2021/07/01 09:28:53;;;;;;;3.95;1.60;;;16.30;99.90;;;;;;5015347;28;20083;-69
2021/07/01 09:31:23;;;;;;;3.75;1.83;;;16.50;99.90;;;;;;5030633;28;20574;-69
2021/07/01 09:33:51;;;;;;;4.38;1.90;;;16.50;99.90;;;;;;5004370;28;20069;-69
2021/07/01 09:36:20;;;;;;;2.63;1.60;;;16.60;99.90;;;;;;5004836;28;20479;-69
2021/07/01 09:38:47;;;;;;;3.10;1.83;;;16.90;99.90;;;;;;5015065;28;20041;-69
2021/07/01 09:41:15;;;;;;;2.97;1.67;;;16.70;99.90;;;;;;5030366;28;20483;-69
2021/07/01 09:43:46;;;;;;;4.97;1.70;;;16.80;99.90;;;;;;4998251;28;20481;-69
2021/07/01 09:46:20;;;;;;;2.85;1.50;;;16.80;99.90;;;;;;4994246;28;20027;-68
2021/07/01 09:48:48;;;;;;;3.83;2.50;;;16.90;99.90;;;;;;4995550;28;20056;-68
2021/07/01 09:51:16;;;;;;;5.25;2.50;;;16.80;99.90;;;;;;4994185;28;20050;-69
2021/07/01 09:53:51;;;;;;;5.15;2.55;;;16.80;99.90;;;;;;4993987;28;20034;-69
2021/07/01 09:56:37;;;;;;;5.97;2.47;;;16.90;99.90;;;;;;4994405;28;20035;-69
2021/07/01 09:59:06;;;;;;;9.88;2.97;;;17.00;99.90;;;;;;5005399;28;20041;-67
2021/07/01 10:01:38;;;;;;;7.03;2.85;;;17.00;99.90;;;;;;5010193;28;20049;-67
2021/07/01 10:04:05;;;;;;;5.90;3.95;;;17.10;99.90;;;;;;5010714;28;20030;-68
2021/07/01 10:06:31;;;;;;;15.30;4.38;;;17.30;99.90;;;;;;5013214;28;20076;-68
2021/07/01 10:08:58;;;;;;;5.90;3.38;;;17.30;99.90;;;;;;5013271;28;20041;-68
2021/07/01 10:11:38;;;;;;;8.68;3.47;;;17.50;99.90;;;;;;5013054;28;20057;-66
2021/07/01 10:14:14;;;;;;;8.73;2.92;;;17.60;99.90;;;;;;4996949;28;20621;-68
2021/07/01 10:16:40;;;;;;;6.93;2.42;;;17.80;99.90;;;;;;5013037;28;20053;-67
2021/07/01 10:19:08;;;;;;;4.30;2.45;;;17.90;99.90;;;;;;5013450;28;20418;-71
2021/07/01 10:21:38;;;;;;;3.08;1.63;;;18.10;99.90;;;;;;4996737;28;20491;-68
2021/07/01 10:24:13;;;;;;;2.60;1.20;;;17.90;99.90;;;;;;5013979;28;20045;-69
2021/07/01 10:26:45;;;;;;;5.00;1.15;;;17.90;99.90;;;;;;5012835;28;20021;-68
2021/07/01 10:29:13;;;;;;;2.50;0.90;;;17.50;99.90;;;;;;5014470;28;20045;-67
2021/07/01 10:32:00;;;;;;;5.72;1.73;;;17.30;99.90;;;;;;5014225;28;20026;-68
2021/07/01 10:34:30;;;;;;;13.02;1.23;;;17.30;99.90;;;;;;5014057;28;20049;-68
2021/07/01 10:37:21;;;;;;;4.45;0.80;;;17.20;99.90;;;;;;5012769;28;20033;-68
2021/07/01 10:39:50;;;;;;;2.28;0.57;;;17.20;99.90;;;;;;5012454;28;20029;-67
2021/07/01 10:42:17;;;;;;;16.25;1.98;;;17.20;99.90;;;;;;5012359;28;20117;-67
2021/07/01 10:44:44;;;;;;;1.92;0.85;;;17.30;99.90;;;;;;5013271;28;20390;-68
2021/07/01 10:47:31;;;;;;;9.63;1.83;;;17.30;99.90;;;;;;5013425;28;20061;-68
2021/07/01 10:49:59;;;;;;;8.13;1.50;;;17.30;99.90;;;;;;5011858;28;20128;-68
2021/07/01 10:52:42;;;;;;;3.78;0.80;;;17.20;99.90;;;;;;5011183;28;20037;-68
2021/07/01 10:55:09;;;;;;;5.13;1.02;;;17.20;99.90;;;;;;5013628;28;20525;-67
2021/07/01 10:57:59;;;;;;;1.17;0.77;;;17.30;99.90;;;;;;5013017;28;20092;-67
2021/07/01 11:00:55;;;;;;;2.00;0.80;;;17.00;99.90;;;;;;5012258;28;20050;-68
2021/07/01 11:03:26;;;;;;;6.43;1.58;;;17.10;99.90;;;;;;4991695;28;20052;-68
2021/07/01 11:05:54;;;;;;;9.63;2.67;;;17.00;99.90;;;;;;5011838;28;20184;-69
2021/07/01 11:08:36;;;;;;;1.67;0.93;;;17.10;99.90;;;;;;5012453;28;20030;-68
2021/07/01 11:11:16;;;;;;;1.30;0.70;;;16.80;99.90;;;;;;5012138;28;20030;-69
2021/07/01 11:14:02;;;;;;;1.67;0.80;;;16.70;99.90;;;;;;5013451;28;20116;-68
2021/07/01 11:16:39;;;;;;;0.93;0.70;;;16.70;99.90;;;;;;5012899;28;20033;-68
2021/07/01 11:19:16;;;;;;;0.55;0.45;;;16.70;99.90;;;;;;5013471;28;20065;-68
2021/07/01 11:21:53;;;;;;;3.70;0.90;;;16.80;99.90;;;;;;5012207;28;20025;-68
2021/07/01 11:24:23;;;;;;;0.85;0.70;;;16.80;99.90;;;;;;5011955;28;20040;-68
2021/07/01 11:26:58;;;;;;;0.90;0.43;;;16.90;99.90;;;;;;5013046;28;20108;-68
2021/07/01 11:29:39;;;;;;;1.00;0.60;;;17.00;99.90;;;;;;4995260;28;20165;-68
2021/07/01 11:32:21;;;;;;;8.35;1.10;;;17.00;99.90;;;;;;4994796;28;20510;-68
2021/07/01 11:34:50;;;;;;;1.75;0.40;;;17.00;99.90;;;;;;5013119;28;20038;-68
2021/07/01 11:37:31;;;;;;;0.75;0.52;;;17.30;99.90;;;;;;5013052;28;20486;-68
2021/07/01 11:40:18;;;;;;;0.98;0.70;;;17.30;99.90;;;;;;5011762;28;20030;-68
2021/07/01 11:42:45;;;;;;;2.20;0.63;;;17.40;99.90;;;;;;5015292;28;20038;-68
2021/07/01 11:45:12;;;;;;;2.40;0.60;;;17.50;99.90;;;;;;5030951;28;20118;-67
2021/07/01 11:47:42;;;;;;;2.92;1.10;;;17.60;99.90;;;;;;5032313;28;20042;-67
2021/07/01 11:50:10;;;;;;;1.30;0.70;;;17.50;99.90;;;;;;5032487;28;20022;-67
2021/07/01 11:52:41;;;;;;;14.88;1.10;;;17.60;99.90;;;;;;5031041;28;20033;-67
2021/07/01 11:55:10;;;;;;;6.47;1.10;;;17.50;99.90;;;;;;5032186;28;20061;-68
2021/07/01 11:57:36;;;;;;;4.35;1.45;;;17.30;99.90;;;;;;5032484;28;20112;-68
2021/07/01 12:00:03;;;;;;;6.03;1.85;;;17.20;99.90;;;;;;5031335;28;20108;-68
2021/07/01 12:02:29;;;;;;;5.80;1.10;;;17.00;99.90;;;;;;5032078;28;20080;-68
2021/07/01 12:04:55;;;;;;;9.07;1.75;;;17.00;99.90;;;;;;5030844;28;20042;-68
2021/07/01 12:07:30;;;;;;;4.70;1.05;;;17.00;99.90;;;;;;5031382;28;20120;-68
2021/07/01 12:09:57;;;;;;;1.67;0.93;;;16.80;99.90;;;;;;5030624;28;20026;-68
2021/07/01 12:12:34;;;;;;;8.13;2.35;;;16.80;99.90;;;;;;5031034;28;20425;-68
2021/07/01 12:15:14;;;;;;;7.70;2.00;;;16.80;99.90;;;;;;5031162;28;20033;-68
2021/07/01 12:18:06;;;;;;;5.15;1.38;;;16.80;99.90;;;;;;5030934;28;20368;-68
2021/07/01 12:20:41;;;;;;;7.82;1.67;;;16.80;99.90;;;;;;5031625;28;20030;-68
2021/07/01 12:23:13;;;;;;;1.70;1.00;;;17.00;99.90;;;;;;5032172;28;20036;-68
2021/07/01 12:25:41;;;;;;;6.30;1.63;;;17.00;99.90;;;;;;5032025;28;20116;-68
2021/07/01 12:28:25;;;;;;;3.13;1.30;;;17.10;99.90;;;;;;5032151;28;20091;-68
2021/07/01 12:31:05;;;;;;;9.57;2.05;;;17.10;99.90;;;;;;5034739;28;20033;-67
2021/07/01 12:33:51;;;;;;;5.43;1.00;;;17.30;99.90;;;;;;5034765;28;20386;-68
2021/07/01 12:36:20;;;;;;;6.28;1.70;;;17.50;99.90;;;;;;5034876;28;20544;-68
2021/07/01 12:39:20;;;;;;;4.07;1.50;;;17.70;99.90;;;;;;5034483;28;20037;-68
2021/07/01 12:42:18;;;;;;;3.60;1.50;;;17.90;99.90;;;;;;5036206;28;20037;-69
2021/07/01 12:44:45;;;;;;;3.20;1.50;;;18.20;99.90;;;;;;5034621;28;20144;-67
2021/07/01 12:47:36;;;;;;;4.97;1.70;;;18.40;99.90;;;;;;5034783;28;20030;-67
2021/07/01 12:50:07;;;;;;;5.25;1.77;;;18.50;99.90;;;;;;5018058;28;20030;-68
2021/07/01 12:52:37;;;;;;;3.72;2.13;;;18.40;99.90;;;;;;5035553;28;20080;-69
2021/07/01 12:55:08;;;;;;;3.28;2.08;;;18.40;99.90;;;;;;5035436;28;20029;-68
2021/07/01 12:57:34;;;;;;;3.92;2.30;;;18.30;99.90;;;;;;5034267;28;20041;-67